Flight Track Log - Related Links

Times and Time Zones

All times are in EDT time to prevent confusion due to time zone crossing. See the SWA3211 flight status page for this flight to view local times or setup timezone preferences in your user account.

Time Position Orientation Groundspeed Altitude Reporting Facility
EDT Latitude Longitude Course Direction KTS MPH feet Rate Location/Type
Wed 05:25:40 PM 39.1833 -76.7167 270° West 171 197 1,700  Level Potomac TRACON
Wed 05:26:46 PM 39.1833 -76.8000 270° West 223 257 4,100 2,598 Climbing Potomac TRACON
Wed 05:27:47 PM 39.2000 -76.8833 284° West 225 259 7,200 2,504 Climbing Potomac TRACON
Wed 05:28:41 PM 39.2167 -76.9500 288° West 255 293 8,900 1,895 Climbing Potomac TRACON
Wed 05:29:41 PM 39.2167 -77.0667 270° West 297 342 10,800 1,884 Climbing Potomac TRACON
Wed 05:30:42 PM 39.2333 -77.1667 282° West 359 413 12,700 2,114 Climbing Potomac TRACON
Wed 05:32:37 PM 39.3486 -77.3628 307° West 386 444 17,000 1,474 Climbing Washington Center
Wed 05:33:37 PM 39.3947 -77.4794 297° West 374 430 17,000 446 Level Washington Center
Wed 05:34:38 PM 39.4447 -77.6125 296° West 369 425 17,900 1,574 Climbing Washington Center
Wed 05:35:39 PM 39.4903 -77.7400 295° West 379 436 20,200 2,168 Climbing Washington Center
Wed 05:36:37 PM 39.5381 -77.8708 295° West 390 449 22,200 1,946 Climbing Washington Center
Wed 05:38:44 PM 39.6264 -78.1519 292° West 419 482 26,200 1,765 Climbing Cleveland Center
Wed 05:39:44 PM 39.6689 -78.2933 291° West 419 482 27,700 1,450 Climbing Cleveland Center
Wed 05:40:44 PM 39.7114 -78.4350 291° West 424 488 29,100 1,450 Climbing Cleveland Center
Wed 05:41:44 PM 39.7514 -78.5822 290° West 429 494 30,600 1,450 Climbing Cleveland Center
Wed 05:42:44 PM 39.7914 -78.7242 290° West 423 487 32,000 1,350 Climbing Cleveland Center
Wed 05:43:44 PM 39.8333 -78.8664 291° West 423 487 33,300 1,000 Climbing Cleveland Center
Wed 05:44:44 PM 39.8814 -79.0167 293° West 423 487 34,000 350 Climbing Cleveland Center
Wed 05:45:44 PM 39.9456 -79.1453 303° West 418 481 34,000  Level Cleveland Center
Wed 05:46:44 PM 40.0075 -79.2711 303° West 418 481 34,000  Level Cleveland Center
Wed 05:47:44 PM 40.0714 -79.4031 302° West 424 488 34,000 200 Level Cleveland Center
Wed 05:48:44 PM 40.1331 -79.5294 303° West 424 488 34,400 700 Climbing Cleveland Center
Wed 05:49:44 PM 40.1969 -79.6589 303° West 424 488 35,400 800 Climbing Cleveland Center
Wed 05:50:44 PM 40.2583 -79.7858 302° West 424 488 36,000 300 Climbing Cleveland Center
Wed 05:51:44 PM 40.3217 -79.9186 302° West 424 488 36,000  Level Cleveland Center
Wed 05:52:44 PM 40.3744 -80.0381 300° West 429 494 36,000  Level Cleveland Center
Wed 05:53:44 PM 40.4375 -80.1683 302° West 429 494 36,000  Level Cleveland Center
Wed 05:54:44 PM 40.5003 -80.2992 302° West 424 488 36,000  Level Cleveland Center
Wed 05:55:44 PM 40.5653 -80.4300 303° West 424 488 36,000  Level Cleveland Center
Wed 05:56:44 PM 40.6300 -80.5750 300° West 424 488 36,000  Level Cleveland Center
Wed 05:57:44 PM 40.6778 -80.6761 302° West 418 481 36,000  Level Cleveland Center
Wed 05:58:44 PM 40.7444 -80.8242 301° West 423 487 36,000  Level Cleveland Center
Wed 05:59:44 PM 40.7961 -80.9617 296° West 418 481 36,000  Level Cleveland Center
Wed 06:00:44 PM 40.8517 -81.1156 296° West 418 481 36,000  Level Cleveland Center
Wed 06:01:44 PM 40.8992 -81.2397 297° West 424 488 36,000  Level Cleveland Center
Wed 06:02:44 PM 40.9503 -81.3803 296° West 424 488 36,000  Level Cleveland Center
Wed 06:03:44 PM 41.0033 -81.5214 297° West 424 488 36,000  Level Cleveland Center
Wed 06:04:44 PM 41.0544 -81.6597 296° West 424 488 36,000  Level Cleveland Center
Wed 06:05:44 PM 41.1133 -81.8150 297° West 424 488 36,000  Level Cleveland Center
Wed 06:06:44 PM 41.1639 -81.9372 299° West 424 488 36,000  Level Cleveland Center
Wed 06:07:44 PM 41.2164 -82.0764 297° West 424 488 36,000  Level Cleveland Center
Wed 06:08:44 PM 41.2686 -82.2325 294° West 424 488 36,000  Level Cleveland Center
Wed 06:09:44 PM 41.3186 -82.3719 296° West 419 482 36,000  Level Cleveland Center
Wed 06:10:44 PM 41.3683 -82.5089 296° West 413 475 36,000  Level Cleveland Center
Wed 06:11:44 PM 41.4122 -82.6292 296° West 406 467 36,000  Level Cleveland Center
Wed 06:12:44 PM 41.4639 -82.7694 296° West 406 467 36,000  Level Cleveland Center
Wed 06:13:44 PM 41.5111 -82.9042 295° West 406 467 36,000  Level Cleveland Center
Wed 06:14:44 PM 41.5606 -83.0392 296° West 406 467 36,000  Level Cleveland Center
Wed 06:15:44 PM 41.6097 -83.1742 296° West 399 459 36,000  Level Cleveland Center
Wed 06:16:44 PM 41.6603 -83.3264 294° West 399 459 36,000  Level Cleveland Center
Wed 06:17:44 PM 41.7089 -83.4647 295° West 404 465 36,000  Level Cleveland Center
Wed 06:18:44 PM 41.7556 -83.6033 294° West 404 465 36,000  Level Cleveland Center
Wed 06:19:44 PM 41.8039 -83.7422 295° West 404 465 36,000  Level Cleveland Center
Wed 06:20:44 PM 41.8519 -83.8811 295° West 404 465 36,000  Level Cleveland Center
Wed 06:21:44 PM 41.8964 -84.0061 296° West 404 465 36,000  Level Cleveland Center
Wed 06:22:44 PM 41.9464 -84.1456 296° West 404 465 36,000  Level Cleveland Center
Wed 06:23:44 PM 42.0058 -84.3028 297° West 409 471 36,000  Level Cleveland Center
Wed 06:24:35 PM 42.0422 -84.4228 292° West 422 486 36,000  Level Chicago Center
Wed 06:25:38 PM 42.0908 -84.5650 295° West 418 481 36,000  Level Chicago Center
Wed 06:26:40 PM 42.1375 -84.7081 294° West 419 482 36,000  Level Chicago Center
Wed 06:27:42 PM 42.1850 -84.8500 294° West 417 480 36,000  Level Chicago Center
Wed 06:28:44 PM 42.2322 -84.9933 294° West 418 481 36,000  Level Chicago Center
Wed 06:29:46 PM 42.2808 -85.1339 295° West 416 479 36,000  Level Chicago Center
Wed 06:30:48 PM 42.3378 -85.3067 294° West 419 482 36,000  Level Chicago Center
Wed 06:31:50 PM 42.3836 -85.4508 293° West 417 480 36,000  Level Chicago Center
Wed 06:32:52 PM 42.4297 -85.5942 294° West 415 478 36,000  Level Chicago Center
Wed 06:33:54 PM 42.4775 -85.7353 295° West 413 475 36,000  Level Chicago Center
Wed 06:34:56 PM 42.5236 -85.8789 294° West 414 476 36,000  Level Chicago Center
Wed 06:35:58 PM 42.5683 -86.0228 293° West 413 475 36,000  Level Chicago Center
Wed 06:37:00 PM 42.6144 -86.1678 293° West 416 479 36,000  Level Chicago Center
Wed 06:38:02 PM 42.6689 -86.3400 293° West 410 472 36,000  Level Chicago Center
Wed 06:39:05 PM 42.7136 -86.4808 293° West 405 466 36,000  Level Chicago Center
Wed 06:40:07 PM 42.7589 -86.6247 293° West 411 473 36,000  Level Chicago Center
Wed 06:41:09 PM 42.8039 -86.7694 293° West 415 478 36,000  Level Chicago Center
Wed 06:42:11 PM 42.8475 -86.9125 293° West 411 473 36,000  Level Chicago Center
Wed 06:43:13 PM 42.8914 -87.0561 293° West 410 472 36,000  Level Chicago Center
Wed 06:44:15 PM 42.9350 -87.2011 292° West 412 474 36,000  Level Chicago Center
Wed 06:45:17 PM 42.9875 -87.3742 293° West 413 475 36,000  Level Chicago Center
Wed 06:46:19 PM 43.0333 -87.5194 293° West 411 473 36,000  Level Chicago Center
Wed 06:47:21 PM 43.0769 -87.6642 292° West 411 473 36,000  Level Chicago Center
Wed 06:48:23 PM 43.1211 -87.8044 293° West 402 463 36,000  Level Chicago Center
Wed 06:49:26 PM 43.1636 -87.9517 292° West 411 473 36,000  Level Chicago Center
Wed 06:50:28 PM 43.2142 -88.1225 292° West 414 476 36,000  Level Chicago Center
Wed 06:51:30 PM 43.2567 -88.2706 292° West 415 478 36,000  Level Chicago Center
Wed 06:52:32 PM 43.2986 -88.4192 291° West 414 476 36,000  Level Chicago Center
Wed 06:53:34 PM 43.3436 -88.5706 292° West 417 480 36,000  Level Chicago Center
Wed 06:54:36 PM 43.3872 -88.7217 292° West 416 479 36,000  Level Chicago Center
Wed 06:55:38 PM 43.4303 -88.8689 292° West 413 475 36,000  Level Chicago Center
Wed 06:56:40 PM 43.4728 -89.0167 292° West 413 475 36,000  Level Chicago Center
Wed 06:57:42 PM 43.5214 -89.1878 291° West 412 474 36,000  Level Chicago Center
Wed 06:58:44 PM 43.5631 -89.3356 291° West 414 476 36,000  Level Chicago Center
Wed 06:59:47 PM 43.6033 -89.4814 291° West 408 470 36,000  Level Chicago Center
Wed 07:00:49 PM 43.6431 -89.6297 290° West 411 473 36,000  Level Chicago Center
Wed 07:01:51 PM 43.6856 -89.7767 292° West 411 473 36,000  Level Chicago Center
Wed 07:02:53 PM 43.7256 -89.9219 291° West 405 466 36,000  Level Chicago Center
Wed 07:03:55 PM 43.7711 -90.0928 290° West 405 466 36,000  Level Chicago Center
Wed 07:04:43 PM 43.7975 -90.1881 291° West 403 464 36,000  Level Minneapolis Center
Wed 07:05:45 PM 43.8436 -90.3550 291° West 398 458 36,000  Level Minneapolis Center
Wed 07:06:47 PM 43.8819 -90.4994 290° West 399 459 36,000  Level Minneapolis Center
Wed 07:07:49 PM 43.9219 -90.6481 291° West 400 460 36,000  Level Minneapolis Center
Wed 07:08:51 PM 43.9603 -90.7903 291° West 399 459 36,000  Level Minneapolis Center
Wed 07:09:53 PM 43.9972 -90.9328 290° West 398 458 36,000  Level Minneapolis Center
Wed 07:10:55 PM 44.0358 -91.0761 291° West 401 461 36,000  Level Minneapolis Center
Wed 07:12:09 PM 44.0878 -91.2761 290° West 397 457 36,000  Level Minneapolis Center
Wed 07:13:12 PM 44.1236 -91.4158 290° West 399 459 36,000  Level Minneapolis Center
Wed 07:14:14 PM 44.1608 -91.5589 290° West 397 457 36,000  Level Minneapolis Center
Wed 07:15:16 PM 44.1972 -91.7014 290° West 393 452 36,000  Level Minneapolis Center
Wed 07:16:18 PM 44.2383 -91.8744 288° West 392 451 36,000  Level Minneapolis Center
Wed 07:17:20 PM 44.2744 -92.0169 290° West 392 451 36,000  Level Minneapolis Center
Wed 07:18:22 PM 44.3114 -92.1606 290° West 393 452 36,000  Level Minneapolis Center
Wed 07:19:24 PM 44.3475 -92.3031 290° West 390 449 36,000  Level Minneapolis Center
Wed 07:20:26 PM 44.3825 -92.4458 289° West 390 449 36,000  Level Minneapolis Center
Wed 07:21:28 PM 44.4178 -92.5897 289° West 390 449 36,000  Level Minneapolis Center
Wed 07:22:30 PM 44.4597 -92.7611 289° West 388 447 36,000  Level Minneapolis Center
Wed 07:23:32 PM 44.4939 -92.9031 289° West 388 447 36,000  Level Minneapolis Center
Wed 07:24:34 PM 44.5286 -93.0464 289° West 388 447 36,000  Level Minneapolis Center
Wed 07:25:37 PM 44.5639 -93.1925 289° West 391 450 36,000  Level Minneapolis Center
Wed 07:26:39 PM 44.5972 -93.3394 288° West 389 448 36,000  Level Minneapolis Center
Wed 07:27:41 PM 44.6331 -93.4858 289° West 392 451 36,000  Level Minneapolis Center
Wed 07:28:43 PM 44.6672 -93.6297 289° West 387 445 36,000  Level Minneapolis Center
Wed 07:29:45 PM 44.7006 -93.7731 288° West 385 443 36,000  Level Minneapolis Center
Wed 07:30:47 PM 44.7400 -93.9442 288° West 384 442 36,000  Level Minneapolis Center
Wed 07:31:49 PM 44.7731 -94.0861 288° West 382 440 36,000  Level Minneapolis Center
Wed 07:32:51 PM 44.8061 -94.2297 288° West 385 443 36,000  Level Minneapolis Center
Wed 07:34:06 PM 44.8442 -94.3992 288° West 380 437 36,000  Level Minneapolis Center
Wed 07:35:08 PM 44.8758 -94.5403 288° West 379 436 36,000  Level Minneapolis Center
Wed 07:36:10 PM 44.9097 -94.6933 287° West 376 433 36,000  Level Minneapolis Center
Wed 07:37:12 PM 44.9408 -94.8333 287° West 376 433 36,000  Level Minneapolis Center
Wed 07:38:14 PM 44.9722 -94.9728 288° West 375 432 36,000 532 Level Minneapolis Center
Wed 07:39:16 PM 45.0081 -95.1422 287° West 377 434 37,100 919 Climbing Minneapolis Center
Wed 07:40:18 PM 45.0336 -95.2547 288° West 378 435 37,900 435 Climbing Minneapolis Center
Wed 07:41:20 PM 45.0686 -95.4214 287° West 372 428 38,000 44 Climbing Minneapolis Center
Wed 07:42:34 PM 45.0997 -95.5622 287° West 376 433 38,000  Level Minneapolis Center
Wed 07:43:37 PM 45.1358 -95.7322 287° West 378 435 38,000  Level Minneapolis Center
Wed 07:44:39 PM 45.1717 -95.9031 287° West 379 436 38,000  Level Minneapolis Center
Wed 07:45:41 PM 45.2006 -96.0433 286° West 375 432 38,000  Level Minneapolis Center
Wed 07:46:43 PM 45.2303 -96.1819 287° West 371 427 38,000  Level Minneapolis Center
Wed 07:47:57 PM 45.2589 -96.3214 286° West 371 427 38,000  Level Minneapolis Center
Wed 07:49:00 PM 45.2933 -96.4886 286° West 371 427 38,000  Level Minneapolis Center
Wed 07:50:14 PM 45.3272 -96.6544 286° West 367 422 38,000  Level Minneapolis Center
Wed 07:51:16 PM 45.3611 -96.8219 286° West 369 425 38,000  Level Minneapolis Center
Wed 07:52:18 PM 45.3892 -96.9644 286° West 374 430 38,000  Level Minneapolis Center
Wed 07:53:21 PM 45.4169 -97.1064 286° West 376 433 38,000  Level Minneapolis Center
Wed 07:54:23 PM 45.4453 -97.2447 286° West 371 427 38,000  Level Minneapolis Center
Wed 07:55:37 PM 45.4781 -97.4136 286° West 371 427 38,000  Level Minneapolis Center
Wed 07:56:39 PM 45.5114 -97.5822 286° West 371 427 38,000  Level Minneapolis Center
Wed 07:57:41 PM 45.5386 -97.7247 285° West 373 429 38,000  Level Minneapolis Center
Wed 07:58:43 PM 45.5661 -97.8661 286° West 372 428 38,000  Level Minneapolis Center
Wed 07:59:45 PM 45.5925 -98.0092 285° West 373 429 38,000  Level Minneapolis Center
Wed 08:00:48 PM 45.6208 -98.1542 286° West 374 430 38,000  Level Minneapolis Center
Wed 08:01:50 PM 45.6525 -98.3244 285° West 372 428 38,000  Level Minneapolis Center
Wed 08:02:52 PM 45.6783 -98.4658 285° West 370 426 38,000  Level Minneapolis Center
Wed 08:04:06 PM 45.7044 -98.6056 285° West 367 422 38,000  Level Minneapolis Center
Wed 08:05:20 PM 45.7350 -98.7744 285° West 367 422 38,000  Level Minneapolis Center
Wed 08:07:25 PM 45.7953 -99.1122 284° West 365 420 38,000  Level Minneapolis Center
Wed 08:08:27 PM 45.8197 -99.2522 284° West 364 419 38,000  Level Minneapolis Center
Wed 08:09:29 PM 45.8444 -99.3922 284° West 364 419 38,000  Level Minneapolis Center
Wed 08:10:31 PM 45.8692 -99.5339 284° West 366 421 38,000  Level Minneapolis Center
Wed 08:11:33 PM 45.8931 -99.6739 284° West 365 420 38,000  Level Minneapolis Center
Wed 08:12:35 PM 45.9114 -99.7861 283° West 364 419 38,000  Level Minneapolis Center
Wed 08:13:37 PM 45.9456 -99.9892 284° West 370 426 38,000  Level Minneapolis Center
Wed 08:14:39 PM 45.9689 -100.1289 284° West 368 423 38,000  Level Minneapolis Center
Wed 08:15:41 PM 45.9928 -100.2733 283° West 369 425 38,000  Level Minneapolis Center
Wed 08:16:43 PM 46.0172 -100.4189 284° West 373 429 38,000  Level Minneapolis Center
Wed 08:17:46 PM 46.0389 -100.5622 282° West 371 427 38,000  Level Minneapolis Center
Wed 08:18:48 PM 46.0625 -100.7039 284° West 369 425 38,000  Level Minneapolis Center
Wed 08:19:50 PM 46.0906 -100.8744 283° West 367 422 38,000  Level Minneapolis Center
Wed 08:20:52 PM 46.1128 -101.0175 283° West 367 422 38,000  Level Minneapolis Center
Wed 08:21:54 PM 46.1353 -101.1619 283° West 368 423 38,000  Level Minneapolis Center
Wed 08:22:56 PM 46.1592 -101.3067 283° West 371 427 38,000  Level Minneapolis Center
Wed 08:23:58 PM 46.1817 -101.4511 283° West 371 427 38,000  Level Minneapolis Center
Wed 08:25:00 PM 46.2094 -101.6236 283° West 370 426 38,000  Level Minneapolis Center
Wed 08:26:02 PM 46.2325 -101.7664 283° West 368 423 38,000  Level Minneapolis Center
Wed 08:27:04 PM 46.2547 -101.9097 283° West 367 422 38,000  Level Minneapolis Center
Wed 08:28:06 PM 46.2753 -102.0411 283° West 367 422 38,000  Level Minneapolis Center
Wed 08:29:09 PM 46.3017 -102.2125 283° West 366 421 38,000  Level Minneapolis Center
Wed 08:30:11 PM 46.3225 -102.3558 282° West 365 420 38,000  Level Minneapolis Center
Wed 08:31:13 PM 46.3439 -102.5019 282° West 369 425 38,000  Level Minneapolis Center
Wed 08:32:15 PM 46.3644 -102.6456 282° West 367 422 38,000  Level Minneapolis Center
Wed 08:33:17 PM 46.3850 -102.7922 282° West 370 426 38,000  Level Minneapolis Center
Wed 08:34:19 PM 46.4058 -102.9389 282° West 371 427 38,000  Level Minneapolis Center
Wed 08:35:21 PM 46.4267 -103.0883 281° West 375 432 38,000  Level Minneapolis Center
Wed 08:36:23 PM 46.4517 -103.2689 281° West 379 436 38,000  Level Minneapolis Center
Wed 08:37:25 PM 46.4669 -103.4200 278° West 380 437 38,000  Level Minneapolis Center
Wed 08:38:27 PM 46.4567 -103.5703 264° West 376 433 38,000  Level Minneapolis Center
Wed 08:39:29 PM 46.4469 -103.7225 265° West 376 433 38,000  Level Minneapolis Center
Wed 08:40:32 PM 46.4372 -103.8742 265° West 377 434 38,000  Level Minneapolis Center
Wed 08:41:34 PM 46.4283 -104.0236 265° West 374 430 38,000  Level Minneapolis Center
Wed 08:42:36 PM 46.4247 -104.2044 268° West 374 430 38,000  Level Minneapolis Center
Wed 08:43:37 PM 46.4311 -104.3242 274° West 375 432 38,000  Level Minneapolis Center
Wed 08:44:40 PM 46.4567 -104.4981 282° West 371 427 38,000  Level Minneapolis Center
Wed 08:46:00 PM 46.4847 -104.7025 281° West 370 426 38,000  Level Salt Lake Center
Wed 08:47:01 PM 46.5036 -104.8389 281° West 371 427 38,000  Level Salt Lake Center
Wed 08:48:03 PM 46.5231 -104.9842 281° West 370 426 38,000  Level Salt Lake Center
Wed 08:49:05 PM 46.5467 -105.1592 281° West 370 426 38,000  Level Salt Lake Center
Wed 08:50:07 PM 46.5658 -105.3047 281° West 369 425 38,000  Level Salt Lake Center
Wed 08:51:09 PM 46.5867 -105.4564 281° West 376 433 38,000  Level Salt Lake Center
Wed 08:52:10 PM 46.6075 -105.6056 282° West 378 435 38,000  Level Salt Lake Center
Wed 08:53:12 PM 46.6269 -105.7558 281° West 379 436 38,000  Level Salt Lake Center
Wed 08:54:14 PM 46.6475 -105.9072 281° West 381 438 38,000  Level Salt Lake Center
Wed 08:55:16 PM 46.6669 -106.0586 281° West 383 441 38,000  Level Salt Lake Center
Wed 08:56:18 PM 46.6892 -106.2369 280° West 379 436 38,000  Level Salt Lake Center
Wed 08:57:19 PM 46.7081 -106.3861 281° West 377 434 38,000  Level Salt Lake Center
Wed 08:58:21 PM 46.7253 -106.5358 280° West 377 434 38,000  Level Salt Lake Center
Wed 08:59:23 PM 46.7450 -106.6864 281° West 379 436 38,000  Level Salt Lake Center
Wed 09:00:25 PM 46.7614 -106.8353 279° West 377 434 38,000  Level Salt Lake Center
Wed 09:01:26 PM 46.7792 -106.9839 280° West 375 432 38,000  Level Salt Lake Center
Wed 09:02:28 PM 46.8003 -107.1631 280° West 375 432 38,000  Level Salt Lake Center
Wed 09:03:30 PM 46.8178 -107.3111 280° West 374 430 38,000  Level Salt Lake Center
Wed 09:04:32 PM 46.8347 -107.4592 280° West 372 428 38,000  Level Salt Lake Center
Wed 09:05:34 PM 46.8508 -107.6103 279° West 378 435 38,000  Level Salt Lake Center
Wed 09:06:35 PM 46.8683 -107.7597 280° West 376 433 38,000  Level Salt Lake Center
Wed 09:07:37 PM 46.8836 -107.9114 278° West 379 436 38,000  Level Salt Lake Center
Wed 09:08:39 PM 46.9044 -108.0919 280° West 378 435 38,000  Level Salt Lake Center
Wed 09:09:41 PM 46.9194 -108.2453 278° West 381 438 38,000  Level Salt Lake Center
Wed 09:10:43 PM 46.9364 -108.3992 279° West 384 442 38,000  Level Salt Lake Center
Wed 09:11:44 PM 46.9519 -108.5547 278° West 389 448 38,000  Level Salt Lake Center
Wed 09:12:46 PM 46.9686 -108.7119 279° West 391 450 38,000  Level Salt Lake Center
Wed 09:13:48 PM 46.9842 -108.8678 278° West 390 449 38,000  Level Salt Lake Center
Wed 09:14:50 PM 47.0019 -109.0389 279° West 394 453 38,000  Level Salt Lake Center
Wed 09:15:51 PM 47.0158 -109.1958 277° West 390 449 38,000  Level Salt Lake Center
Wed 09:16:53 PM 47.0306 -109.3531 278° West 390 449 38,000  Level Salt Lake Center
Wed 09:17:55 PM 47.0461 -109.5100 278° West 390 449 38,000  Level Salt Lake Center
Wed 09:18:56 PM 47.0642 -109.6978 278° West 389 448 38,000  Level Salt Lake Center
Wed 09:19:58 PM 47.0789 -109.8542 278° West 389 448 38,000  Level Salt Lake Center
Wed 09:21:00 PM 47.0931 -110.0144 277° West 393 452 38,000  Level Salt Lake Center
Wed 09:22:01 PM 47.1075 -110.1736 278° West 395 455 38,000  Level Salt Lake Center
Wed 09:23:03 PM 47.1214 -110.3347 277° West 397 457 38,000  Level Salt Lake Center
Wed 09:24:05 PM 47.1344 -110.4958 277° West 398 458 38,000  Level Salt Lake Center
Wed 09:25:06 PM 47.1483 -110.6550 277° West 393 452 38,000  Level Salt Lake Center
Wed 09:26:08 PM 47.1622 -110.8133 277° West 392 451 38,000  Level Salt Lake Center
Wed 09:27:10 PM 47.1772 -111.0050 277° West 391 450 38,000  Level Salt Lake Center
Wed 09:28:11 PM 47.1894 -111.1653 276° West 393 452 38,000  Level Salt Lake Center
Wed 09:29:13 PM 47.2022 -111.3239 277° West 390 449 38,000  Level Salt Lake Center
Wed 09:30:14 PM 47.2144 -111.4822 277° West 388 447 38,000  Level Salt Lake Center
Wed 09:31:16 PM 47.2264 -111.6400 276° West 387 445 38,000  Level Salt Lake Center
Wed 09:32:18 PM 47.2389 -111.7997 277° West 391 450 38,000  Level Salt Lake Center
Wed 09:33:19 PM 47.2503 -111.9603 276° West 393 452 38,000  Level Salt Lake Center
Wed 09:34:21 PM 47.2617 -112.1197 276° West 392 451 38,000  Level Salt Lake Center
Wed 09:35:23 PM 47.2731 -112.2817 276° West 396 456 38,000  Level Salt Lake Center
Wed 09:36:25 PM 47.2869 -112.4747 276° West 396 456 38,000  Level Salt Lake Center
Wed 09:37:26 PM 47.2972 -112.6381 275° West 399 459 38,000  Level Salt Lake Center
Wed 09:38:28 PM 47.3075 -112.8011 275° West 400 460 38,000  Level Salt Lake Center
Wed 09:39:30 PM 47.3181 -112.9664 275° West 399 459 38,000  Level Salt Lake Center
Wed 09:40:31 PM 47.3286 -113.1292 276° West 398 458 38,000  Level Salt Lake Center
Wed 09:41:33 PM 47.3383 -113.2919 275° West 400 460 38,000  Level Salt Lake Center
Wed 09:42:35 PM 47.3478 -113.4539 275° West 397 457 38,000  Level Salt Lake Center
Wed 09:43:37 PM 47.3572 -113.6144 275° West 393 452 38,000  Level Salt Lake Center
Wed 09:44:38 PM 47.3689 -113.8081 275° West 394 453 38,000  Level Salt Lake Center
Wed 09:45:40 PM 47.3778 -113.9697 275° West 395 455 38,000  Level Salt Lake Center
Wed 09:47:13 PM 47.3889 -114.1947 274° West 393 452 38,000  Level Seattle Center
Wed 09:47:44 PM 47.3947 -114.2906 275° West 393 452 38,000  Level Salt Lake Center
Wed 09:48:46 PM 47.4033 -114.4567 274° West 403 464 38,000  Level Salt Lake Center
Wed 09:49:47 PM 47.4114 -114.6206 274° West 401 461 38,000  Level Salt Lake Center
Wed 09:50:49 PM 47.4186 -114.7869 274° West 404 465 38,000  Level Salt Lake Center
Wed 09:51:51 PM 47.4269 -114.9519 274° West 402 463 38,000  Level Salt Lake Center
Wed 09:52:53 PM 47.4364 -115.1503 274° West 402 463 38,000  Level Salt Lake Center
Wed 09:53:54 PM 47.4428 -115.3136 273° West 400 460 38,000  Level Salt Lake Center
Wed 09:54:56 PM 47.4503 -115.4775 274° West 400 460 38,000  Level Salt Lake Center
Wed 09:55:58 PM 47.4567 -115.6400 273° West 397 457 38,000  Level Salt Lake Center
Wed 09:57:00 PM 47.4661 -115.8022 275° West 397 457 38,000  Level Salt Lake Center
Wed 09:58:02 PM 47.4772 -115.9664 276° West 401 461 38,000  Level Salt Lake Center
Wed 09:59:03 PM 47.4861 -116.1406 274° West 396 456 38,000  Level Salt Lake Center
Wed 10:00:05 PM 47.4953 -116.3031 275° West 398 458 38,000  Level Salt Lake Center
Wed 10:01:28 PM 47.5086 -116.5311 275° West 398 458 38,000  Level Seattle Center
Wed 10:02:29 PM 47.5178 -116.6947 275° West 400 460 38,000  Level Seattle Center
Wed 10:03:30 PM 47.5272 -116.8575 275° West 399 459 38,000  Level Seattle Center
Wed 10:04:31 PM 47.5375 -117.0422 275° West 402 463 38,000  Level Seattle Center
Wed 10:05:32 PM 47.5450 -117.2053 274° West 400 460 38,000  Level Seattle Center
Wed 10:06:33 PM 47.5519 -117.3667 274° West 406 467 38,000  Level Seattle Center
Wed 10:07:34 PM 47.5603 -117.5286 274° West 399 459 38,000  Level Seattle Center
Wed 10:08:35 PM 47.5700 -117.6933 275° West 401 461 38,000  Level Seattle Center
Wed 10:09:36 PM 47.5867 -117.8572 279° West 404 465 38,000  Level Seattle Center
Wed 10:10:37 PM 47.6017 -118.0208 278° West 403 464 38,000  Level Seattle Center
Wed 10:11:38 PM 47.6172 -118.1853 278° West 404 465 38,000  Level Seattle Center
Wed 10:12:39 PM 47.6331 -118.3503 278° West 404 465 38,000  Level Seattle Center
Wed 10:13:40 PM 47.6503 -118.5475 277° West 404 465 38,000  Level Seattle Center
Wed 10:14:41 PM 47.6653 -118.7122 278° West 403 464 38,000  Level Seattle Center
Wed 10:15:43 PM 47.6789 -118.8758 277° West 402 463 38,000  Level Seattle Center
Wed 10:16:44 PM 47.6925 -119.0378 277° West 398 458 38,000  Level Seattle Center
Wed 10:17:45 PM 47.7064 -119.2017 277° West 399 459 38,000  Level Seattle Center
Wed 10:18:46 PM 47.7189 -119.3653 277° West 400 460 38,000  Level Seattle Center
Wed 10:19:47 PM 47.7314 -119.5308 276° West 404 465 38,000  Level Seattle Center
Wed 10:20:48 PM 47.7453 -119.6947 277° West 402 463 38,000  Level Seattle Center
Wed 10:21:49 PM 47.7589 -119.8597 277° West 403 464 38,000  Level Seattle Center
Wed 10:22:50 PM 47.7714 -120.0247 276° West 402 463 38,000  Level Seattle Center
Wed 10:23:51 PM 47.7828 -120.1881 276° West 400 460 38,000 -197 Level Seattle Center
Wed 10:24:52 PM 47.7969 -120.3844 276° West 399 459 37,600 -1,463 Descending Seattle Center
Wed 10:25:54 PM 47.8089 -120.5461 276° West 397 457 35,000 -2,732 Descending Seattle Center
Wed 10:26:55 PM 47.8203 -120.7089 276° West 397 457 32,000 -2,607 Descending Seattle Center
Wed 10:27:56 PM 47.8356 -120.8756 278° West 399 459 29,700 -2,213 Descending Seattle Center
Wed 10:28:57 PM 47.8456 -121.0314 276° West 386 444 27,500 -2,164 Descending Seattle Center
Wed 10:29:58 PM 47.8556 -121.1844 276° West 376 433 25,300 -2,361 Descending Seattle Center
Wed 10:30:59 PM 47.8639 -121.3531 274° West 363 418 22,700 -2,164 Descending Seattle Center
Wed 10:32:00 PM 47.8744 -121.4814 277° West 363 418 20,900 -1,869 Descending Seattle Center
Wed 10:33:01 PM 47.8822 -121.6242 275° West 352 405 18,900 -1,918 Descending Seattle Center
Wed 10:34:02 PM 47.8400 -121.7658 246° West 334 384 17,000 -1,869 Descending Seattle Center
Wed 10:35:03 PM 47.7717 -121.8586 222° Southwest 326 375 15,100 -1,736 Descending Seattle Center
Wed 10:36:03 PM 47.7058 -121.9494 223° Southwest 322 371 13,500 -1,670 Descending Seattle Center
Wed 10:36:58 PM 47.6442 -122.0300 221° Southwest 323 372 11,900 -1,475 Descending Seattle Center
Wed 10:38:05 PM 47.5767 -122.1236 223° Southwest 307 353 10,500 -1,078 Descending Seattle Center
Wed 10:39:06 PM 47.5094 -122.1742 207° Southwest 281 323 9,600 -1,230 Descending Seattle Center
Wed 10:40:07 PM 47.4278 -122.1669 177° South 291 335 8,000 -1,623 Descending Seattle Center
Wed 10:41:08 PM 47.3419 -122.1622 178° South 287 330 6,300 -1,388 Descending Seattle Center
Wed 10:42:08 PM 47.2628 -122.1569 177° South 286 329 5,200 -1,190 Descending Seattle Center
Wed 10:43:09 PM 47.1992 -122.1953 202° Southwest 274 315 3,900 -1,082 Descending Seattle Center
Wed 10:44:10 PM 47.2425 -122.2694 311° West 244 281 3,000 -466 Descending Seattle Center
Wed 10:45:05 PM 47.2869 -122.3133 326° Northwest 202 232 3,000 -310 Level Seattle Center
Wed 10:46:06 PM 47.3353 -122.3194 355° North 167 192 2,400 -738 Descending Seattle Center
Wed 10:47:07 PM 47.3819 -122.3200 360° North 164 189 1,500 -738 Descending Seattle Center
Wed 10:48:08 PM 47.4178 -122.3200 360° North 127 146 900 -508 Descending Seattle Center
Wed 10:49:17 PM 47.4622 -122.3183 North 131 151 400 -435 Descending Seattle Center

Login

Don't have an account? Register now (free) for customized features, flight alerts, and more!